Time;durP1;ratioP1;P1;durP2;ratioP2;P2;SDS_P1;SDS_P2;PMS_P1;PMS_P2;Temp;Humidity;BMP_temperature;BMP_pressure;BME280_temperature;BME280_humidity;BME280_pressure;Samples;Min_cycle;Max_cycle;Signal;HPM_P1;HPM_P2
2020/12/11 00:00:14;;;;;;;99.82;51.13;;;;;;;;;;5036373;28;20489;-80
2020/12/11 00:02:40;;;;;;;95.10;49.78;;;;;;;;;;5054602;28;20367;-80
2020/12/11 00:05:06;;;;;;;91.40;47.70;;;;;;;;;;5037056;28;20390;-81
2020/12/11 00:07:42;;;;;;;88.80;47.25;;;;;;;;;;5036381;28;20411;-80
2020/12/11 00:10:09;;;;;;;95.25;48.47;;;;;;;;;;5054098;28;20493;-80
2020/12/11 00:12:35;;;;;;;93.18;48.05;;;;;;;;;;5054221;28;20367;-80
2020/12/11 00:15:01;;;;;;;90.72;48.53;;;;;;;;;;5054255;28;20356;-81
2020/12/11 00:17:28;;;;;;;91.90;48.50;;;;;;;;;;5036530;28;20734;-80
2020/12/11 00:19:54;;;;;;;89.75;47.53;;;;;;;;;;5054285;28;20489;-81
2020/12/11 00:22:21;;;;;;;90.90;46.53;;;;;;;;;;5036516;28;20452;-80
2020/12/11 00:24:47;;;;;;;88.00;47.72;;;;;;;;;;5036627;28;20872;-80
2020/12/11 00:27:13;;;;;;;90.40;48.80;;;;;;;;;;5054298;28;20450;-80
2020/12/11 00:29:39;;;;;;;86.30;47.42;;;;;;;;;;5035758;28;20396;-80
2020/12/11 00:32:05;;;;;;;91.25;48.83;;;;;;;;;;5035875;28;20854;-81
2020/12/11 00:34:32;;;;;;;93.90;48.47;;;;;;;;;;5054144;28;20364;-80
2020/12/11 00:36:58;;;;;;;86.97;45.85;;;;;;;;;;5053988;28;20405;-80
2020/12/11 00:39:24;;;;;;;88.15;46.90;;;;;;;;;;5053809;28;20368;-80
2020/12/11 00:41:51;;;;;;;88.90;46.63;;;;;;;;;;5054000;28;20368;-80
2020/12/11 00:44:17;;;;;;;90.43;47.03;;;;;;;;;;5035972;28;21220;-81
2020/12/11 00:46:43;;;;;;;91.45;46.33;;;;;;;;;;5053796;28;20360;-80
2020/12/11 00:49:09;;;;;;;85.40;45.78;;;;;;;;;;5053703;28;20418;-82
2020/12/11 00:51:35;;;;;;;87.72;45.00;;;;;;;;;;5053763;28;21029;-80
2020/12/11 00:54:01;;;;;;;89.18;46.08;;;;;;;;;;5053841;28;20352;-82
2020/12/11 00:56:27;;;;;;;86.45;44.88;;;;;;;;;;5053567;28;20765;-81
2020/12/11 00:58:53;;;;;;;80.97;45.17;;;;;;;;;;5053570;28;20862;-80
2020/12/11 01:01:19;;;;;;;87.13;44.35;;;;;;;;;;5035183;28;20467;-80
2020/12/11 01:03:45;;;;;;;82.13;44.47;;;;;;;;;;5035684;28;20372;-80
2020/12/11 01:06:12;;;;;;;85.45;44.47;;;;;;;;;;5053389;28;21029;-80
2020/12/11 01:08:38;;;;;;;78.00;41.58;;;;;;;;;;5053421;28;20424;-80
2020/12/11 01:11:04;;;;;;;81.65;43.72;;;;;;;;;;5053503;28;20435;-80
2020/12/11 01:13:30;;;;;;;81.35;43.42;;;;;;;;;;5035630;28;20383;-80
2020/12/11 01:15:56;;;;;;;79.15;41.22;;;;;;;;;;5053174;28;20735;-80
2020/12/11 01:18:22;;;;;;;80.13;42.43;;;;;;;;;;5053341;28;20474;-81
2020/12/11 01:20:48;;;;;;;71.97;40.35;;;;;;;;;;5053534;28;20387;-80
2020/12/11 01:23:14;;;;;;;80.47;43.10;;;;;;;;;;5035496;28;21000;-80
2020/12/11 01:25:40;;;;;;;83.18;43.45;;;;;;;;;;5053623;28;20400;-81
2020/12/11 01:28:06;;;;;;;85.50;43.70;;;;;;;;;;5053371;28;20454;-80
2020/12/11 01:30:32;;;;;;;86.35;45.25;;;;;;;;;;5052896;28;20968;-80
2020/12/11 01:32:59;;;;;;;85.20;45.08;;;;;;;;;;5053256;28;20352;-80
2020/12/11 01:35:25;;;;;;;87.18;46.25;;;;;;;;;;5035080;28;20399;-80
2020/12/11 01:37:51;;;;;;;89.30;45.33;;;;;;;;;;5052763;28;20375;-80
2020/12/11 01:40:17;;;;;;;83.72;43.38;;;;;;;;;;5034652;28;20372;-80
2020/12/11 01:42:43;;;;;;;78.73;41.63;;;;;;;;;;5034579;28;20410;-80
2020/12/11 01:45:09;;;;;;;86.03;44.95;;;;;;;;;;5034867;28;20379;-80
2020/12/11 01:47:39;;;;;;;92.88;48.97;;;;;;;;;;5034859;28;20364;-79
2020/12/11 01:50:06;;;;;;;94.63;47.35;;;;;;;;;;5052531;28;20402;-80
2020/12/11 01:52:32;;;;;;;101.60;48.90;;;;;;;;;;5034490;28;20402;-80
2020/12/11 01:54:58;;;;;;;100.07;48.60;;;;;;;;;;5034486;28;20449;-80
2020/12/11 01:57:42;;;;;;;98.10;48.57;;;;;;;;;;5034381;28;20434;-80
2020/12/11 02:00:08;;;;;;;91.97;47.30;;;;;;;;;;5052237;28;21033;-80
2020/12/11 02:02:38;;;;;;;99.82;50.05;;;;;;;;;;5034463;28;20397;-80
2020/12/11 02:05:08;;;;;;;105.13;50.72;;;;;;;;;;5052255;28;20364;-80
2020/12/11 02:07:38;;;;;;;98.57;49.77;;;;;;;;;;5052214;28;20360;-80
2020/12/11 02:10:04;;;;;;;101.22;49.17;;;;;;;;;;5051798;28;20423;-80
2020/12/11 02:12:30;;;;;;;97.80;48.93;;;;;;;;;;5034294;28;20363;-80
2020/12/11 02:14:56;;;;;;;101.38;50.50;;;;;;;;;;5051639;28;20364;-80
2020/12/11 02:17:26;;;;;;;105.28;51.83;;;;;;;;;;5052246;28;20372;-80
2020/12/11 02:19:52;;;;;;;104.18;50.85;;;;;;;;;;5033902;28;20733;-81
2020/12/11 02:22:18;;;;;;;108.47;52.77;;;;;;;;;;5052298;28;20443;-80
2020/12/11 02:24:44;;;;;;;107.00;51.35;;;;;;;;;;5034277;28;20360;-80
2020/12/11 02:27:10;;;;;;;101.65;50.70;;;;;;;;;;5051974;28;20431;-80
2020/12/11 02:29:36;;;;;;;107.90;52.55;;;;;;;;;;5033955;28;20811;-80
2020/12/11 02:32:02;;;;;;;105.80;50.35;;;;;;;;;;5051874;28;20356;-80
2020/12/11 02:34:28;;;;;;;104.40;51.42;;;;;;;;;;5051889;28;20363;-80
2020/12/11 02:37:00;;;;;;;114.40;53.63;;;;;;;;;;5051670;28;20356;-81
2020/12/11 02:39:26;;;;;;;114.13;54.38;;;;;;;;;;5033667;28;20391;-81
2020/12/11 02:41:52;;;;;;;112.25;54.67;;;;;;;;;;5033814;28;20783;-80
2020/12/11 02:44:18;;;;;;;113.63;54.97;;;;;;;;;;5033711;28;20447;-80
2020/12/11 02:46:44;;;;;;;114.57;54.97;;;;;;;;;;5051804;28;20396;-80
2020/12/11 02:49:10;;;;;;;104.20;51.33;;;;;;;;;;5033108;28;20395;-80
2020/12/11 02:51:36;;;;;;;101.53;48.58;;;;;;;;;;5052004;28;20364;-81
2020/12/11 02:54:02;;;;;;;96.80;47.97;;;;;;;;;;5033607;28;20847;-80
2020/12/11 02:56:28;;;;;;;94.65;48.13;;;;;;;;;;5033287;28;20364;-81
2020/12/11 02:58:54;;;;;;;92.47;47.33;;;;;;;;;;5033506;28;20712;-80
2020/12/11 03:01:20;;;;;;;85.05;45.50;;;;;;;;;;5033215;28;20371;-81
2020/12/11 03:03:46;;;;;;;83.22;43.58;;;;;;;;;;5033756;28;20368;-81
2020/12/11 03:06:13;;;;;;;78.28;42.40;;;;;;;;;;5033940;28;20383;-81
2020/12/11 03:08:39;;;;;;;76.32;42.40;;;;;;;;;;5033703;28;20411;-81
2020/12/11 03:11:05;;;;;;;77.47;42.33;;;;;;;;;;5033561;28;20363;-81
2020/12/11 03:13:31;;;;;;;77.07;42.05;;;;;;;;;;5033549;28;20437;-80
2020/12/11 03:15:57;;;;;;;78.63;42.97;;;;;;;;;;5033298;28;20936;-81
2020/12/11 03:18:23;;;;;;;73.22;42.78;;;;;;;;;;5033265;28;20378;-80
2020/12/11 03:20:49;;;;;;;73.47;41.65;;;;;;;;;;5032845;28;20858;-80
2020/12/11 03:23:15;;;;;;;76.93;41.33;;;;;;;;;;5050699;28;20922;-80
2020/12/11 03:25:41;;;;;;;68.28;41.08;;;;;;;;;;5032843;28;20475;-80
2020/12/11 03:28:07;;;;;;;74.95;41.33;;;;;;;;;;5032886;28;20390;-80
2020/12/11 03:30:33;;;;;;;70.28;40.53;;;;;;;;;;5032627;28;20396;-81
2020/12/11 03:32:59;;;;;;;70.70;40.80;;;;;;;;;;5032688;28;20882;-80
2020/12/11 03:35:25;;;;;;;79.95;42.92;;;;;;;;;;5033001;28;20376;-80
2020/12/11 03:37:51;;;;;;;72.88;41.47;;;;;;;;;;5032918;28;20858;-80
2020/12/11 03:40:17;;;;;;;68.97;39.73;;;;;;;;;;5032647;28;20423;-80
2020/12/11 03:42:43;;;;;;;75.63;42.33;;;;;;;;;;5032790;28;20425;-80
2020/12/11 03:45:09;;;;;;;75.95;43.03;;;;;;;;;;5050629;28;20359;-79
2020/12/11 03:47:36;;;;;;;78.00;43.28;;;;;;;;;;5032486;28;20885;-80
2020/12/11 03:50:02;;;;;;;70.82;41.05;;;;;;;;;;5050630;28;20402;-80
2020/12/11 03:52:29;;;;;;;81.20;44.83;;;;;;;;;;5032626;28;20375;-80
2020/12/11 03:54:55;;;;;;;85.72;44.85;;;;;;;;;;5032579;28;20379;-80
2020/12/11 03:57:21;;;;;;;86.22;45.85;;;;;;;;;;5032484;28;20831;-80
2020/12/11 03:59:47;;;;;;;89.93;46.17;;;;;;;;;;5050190;28;20402;-80
2020/12/11 04:02:15;;;;;;;84.38;45.65;;;;;;;;;;5050260;28;20402;-80
2020/12/11 04:04:41;;;;;;;82.60;43.92;;;;;;;;;;5032404;28;20360;-80
2020/12/11 04:07:07;;;;;;;85.97;45.90;;;;;;;;;;5050294;28;20395;-80
2020/12/11 04:09:33;;;;;;;83.32;45.40;;;;;;;;;;5031991;28;20431;-81
2020/12/11 04:11:59;;;;;;;84.55;45.97;;;;;;;;;;5032455;28;20417;-81
2020/12/11 04:14:25;;;;;;;89.70;47.88;;;;;;;;;;5032341;28;20414;-81
2020/12/11 04:16:51;;;;;;;96.53;49.80;;;;;;;;;;5050217;28;20374;-80
2020/12/11 04:19:17;;;;;;;93.03;49.40;;;;;;;;;;5050200;28;20367;-81
2020/12/11 04:21:47;;;;;;;100.37;51.03;;;;;;;;;;5032471;28;20478;-81
2020/12/11 04:24:13;;;;;;;101.95;50.25;;;;;;;;;;5050247;28;20359;-81
2020/12/11 04:26:39;;;;;;;98.77;50.40;;;;;;;;;;5050130;28;20360;-81
2020/12/11 04:29:05;;;;;;;98.03;51.13;;;;;;;;;;5049712;28;20878;-81
2020/12/11 04:31:31;;;;;;;97.63;51.72;;;;;;;;;;5032184;28;20450;-80
2020/12/11 04:33:57;;;;;;;101.38;51.28;;;;;;;;;;5032284;28;20433;-81
2020/12/11 04:36:23;;;;;;;102.37;51.40;;;;;;;;;;5032835;28;20364;-81
2020/12/11 04:38:49;;;;;;;99.35;49.22;;;;;;;;;;5035915;28;20414;-81
2020/12/11 04:41:15;;;;;;;94.30;50.55;;;;;;;;;;5035565;28;20757;-81
2020/12/11 04:43:41;;;;;;;84.82;48.80;;;;;;;;;;5053471;28;20364;-81
2020/12/11 04:46:07;;;;;;;83.30;46.45;;;;;;;;;;5035781;28;20966;-82
2020/12/11 04:48:34;;;;;;;88.05;47.38;;;;;;;;;;5035639;28;20370;-81
2020/12/11 04:51:02;;;;;;;84.93;46.10;;;;;;;;;;5053102;28;20447;-81
2020/12/11 04:53:32;;;;;;;83.93;46.00;;;;;;;;;;5053382;28;20356;-81
2020/12/11 04:55:59;;;;;;;91.22;46.83;;;;;;;;;;5035274;28;20371;-82
2020/12/11 04:58:27;;;;;;;82.63;45.30;;;;;;;;;;5053676;28;20831;-81
2020/12/11 05:00:53;;;;;;;79.53;45.47;;;;;;;;;;5053205;28;20370;-81
2020/12/11 05:03:20;;;;;;;79.10;44.10;;;;;;;;;;5053499;28;20440;-81
2020/12/11 05:05:46;;;;;;;77.22;44.40;;;;;;;;;;5035467;28;20375;-82
2020/12/11 05:08:18;;;;;;;79.97;46.28;;;;;;;;;;5035232;28;20463;-81
2020/12/11 05:10:44;;;;;;;77.50;44.27;;;;;;;;;;5052688;28;20747;-80
2020/12/11 05:13:37;;;;;;;77.88;44.10;;;;;;;;;;5035421;28;20414;-81
2020/12/11 05:16:07;;;;;;;77.57;44.33;;;;;;;;;;5050408;28;20801;-81
2020/12/11 05:18:33;;;;;;;74.70;42.10;;;;;;;;;;5035232;28;20863;-80
2020/12/11 05:21:14;;;;;;;74.33;43.03;;;;;;;;;;5035056;28;20367;-80
2020/12/11 05:23:57;;;;;;;72.22;42.58;;;;;;;;;;5035273;28;20413;-81
2020/12/11 05:26:23;;;;;;;73.85;42.33;;;;;;;;;;5052935;28;20372;-81
2020/12/11 05:28:50;;;;;;;67.47;41.73;;;;;;;;;;5035044;28;20850;-81
2020/12/11 05:31:16;;;;;;;73.70;41.83;;;;;;;;;;5052562;28;20479;-81
2020/12/11 05:34:00;;;;;;;66.65;40.17;;;;;;;;;;5052834;28;20850;-82
2020/12/11 05:36:26;;;;;;;69.82;41.05;;;;;;;;;;5053124;28;20438;-82
2020/12/11 05:38:52;;;;;;;66.38;40.15;;;;;;;;;;5052990;28;20443;-81
2020/12/11 05:41:31;;;;;;;66.67;39.27;;;;;;;;;;5034497;28;20886;-81
2020/12/11 05:43:57;;;;;;;66.35;40.08;;;;;;;;;;5034563;28;20368;-81
2020/12/11 05:46:29;;;;;;;67.15;39.85;;;;;;;;;;5052567;28;20364;-81
2020/12/11 05:48:57;;;;;;;68.63;40.38;;;;;;;;;;5051543;28;20396;-79
2020/12/11 05:51:24;;;;;;;69.77;40.47;;;;;;;;;;5034728;28;20483;-83
2020/12/11 05:53:51;;;;;;;70.20;41.30;;;;;;;;;;5070452;28;20424;-86
2020/12/11 05:56:17;;;;;;;67.35;39.30;;;;;;;;;;5063457;28;20413;-84
2020/12/11 05:58:44;;;;;;;69.97;41.30;;;;;;;;;;5060694;28;20376;-83
2020/12/11 06:01:17;;;;;;;73.38;42.00;;;;;;;;;;5053290;28;20910;-84
2020/12/11 06:03:45;;;;;;;73.20;42.50;;;;;;;;;;5070008;28;20370;-83
2020/12/11 06:06:15;;;;;;;68.23;41.40;;;;;;;;;;5053387;28;20403;-83
2020/12/11 06:08:46;;;;;;;74.45;43.78;;;;;;;;;;5035229;28;20442;-86
2020/12/11 06:11:23;;;;;;;78.03;42.17;;;;;;;;;;5061335;28;20882;-83
2020/12/11 06:13:50;;;;;;;77.85;43.78;;;;;;;;;;5059814;28;20402;-86
2020/12/11 06:16:16;;;;;;;71.65;43.40;;;;;;;;;;5052540;28;20368;-82
2020/12/11 06:18:43;;;;;;;72.63;42.45;;;;;;;;;;5035617;28;20854;-89
2020/12/11 06:21:10;;;;;;;76.07;43.90;;;;;;;;;;5035128;28;20364;-83
2020/12/11 06:23:40;;;;;;;96.55;57.22;;;;;;;;;;5054574;28;20755;-84
2020/12/11 06:26:06;;;;;;;80.50;46.10;;;;;;;;;;5054930;28;20370;-86
2020/12/11 06:28:38;;;;;;;79.15;45.90;;;;;;;;;;5053280;28;20398;-86
2020/12/11 06:31:09;;;;;;;80.82;45.90;;;;;;;;;;5054064;28;20374;-85
2020/12/11 06:33:35;;;;;;;77.60;44.88;;;;;;;;;;5072024;28;20845;-86
2020/12/11 06:36:02;;;;;;;75.80;44.35;;;;;;;;;;5054023;28;20366;-85
2020/12/11 06:38:44;;;;;;;76.07;43.97;;;;;;;;;;5071724;28;20833;-85
2020/12/11 06:41:10;;;;;;;77.87;44.07;;;;;;;;;;5053683;28;20374;-85
2020/12/11 06:43:39;;;;;;;74.93;43.50;;;;;;;;;;5053628;28;20733;-86
2020/12/11 06:46:25;;;;;;;72.05;43.15;;;;;;;;;;5053627;28;20488;-85
2020/12/11 06:49:08;;;;;;;77.60;44.28;;;;;;;;;;5053015;28;20398;-86
2020/12/11 06:51:49;;;;;;;78.75;45.08;;;;;;;;;;5071610;28;20457;-87
2020/12/11 06:54:35;;;;;;;71.18;43.03;;;;;;;;;;5053241;28;20792;-86
2020/12/11 06:57:02;;;;;;;75.00;43.83;;;;;;;;;;5052918;28;20781;-87
2020/12/11 06:59:28;;;;;;;75.80;43.88;;;;;;;;;;5070838;28;20354;-85
2020/12/11 07:02:04;;;;;;;71.93;42.33;;;;;;;;;;5050267;28;20385;-87
2020/12/11 07:04:43;;;;;;;68.20;40.53;;;;;;;;;;5037499;28;20383;-85
2020/12/11 07:07:10;;;;;;;71.72;42.80;;;;;;;;;;5054632;28;20716;-84
2020/12/11 07:09:39;;;;;;;72.53;42.85;;;;;;;;;;5054277;28;20861;-84
2020/12/11 07:12:05;;;;;;;70.23;42.20;;;;;;;;;;5072372;28;20907;-85
2020/12/11 07:14:31;;;;;;;70.32;42.08;;;;;;;;;;5049276;28;20383;-86
2020/12/11 07:16:57;;;;;;;70.38;42.42;;;;;;;;;;5039583;28;20406;-85
2020/12/11 07:19:23;;;;;;;69.72;41.70;;;;;;;;;;5045205;28;20876;-85
2020/12/11 07:21:49;;;;;;;71.88;41.92;;;;;;;;;;5055807;28;20370;-87
2020/12/11 07:24:16;;;;;;;70.15;41.40;;;;;;;;;;5037669;28;20889;-85
2020/12/11 07:26:42;;;;;;;67.05;40.45;;;;;;;;;;5034608;28;20454;-85
2020/12/11 07:29:18;;;;;;;67.45;40.90;;;;;;;;;;5068951;28;20819;-85
2020/12/11 07:31:45;;;;;;;69.00;41.97;;;;;;;;;;5051738;28;20403;-85
2020/12/11 07:34:21;;;;;;;70.45;41.67;;;;;;;;;;5051810;28;20869;-84
2020/12/11 07:36:54;;;;;;;68.60;42.03;;;;;;;;;;5057788;28;20419;-85
2020/12/11 07:39:20;;;;;;;67.45;40.53;;;;;;;;;;5071855;28;20733;-85
2020/12/11 07:41:47;;;;;;;69.80;41.28;;;;;;;;;;5054385;28;20378;-83
2020/12/11 07:44:23;;;;;;;67.50;40.85;;;;;;;;;;5053836;28;20362;-86
2020/12/11 07:46:49;;;;;;;66.82;39.65;;;;;;;;;;5053485;28;20405;-82
2020/12/11 07:49:15;;;;;;;67.97;40.70;;;;;;;;;;5043896;28;20384;-84
2020/12/11 07:51:45;;;;;;;68.38;40.22;;;;;;;;;;5033725;28;20372;-83
2020/12/11 07:54:11;;;;;;;72.17;41.07;;;;;;;;;;5036865;28;20387;-86
2020/12/11 07:56:39;;;;;;;66.95;39.75;;;;;;;;;;5040652;28;20738;-84
2020/12/11 07:59:15;;;;;;;71.07;42.30;;;;;;;;;;5033163;28;20395;-85
2020/12/11 08:01:46;;;;;;;72.78;42.08;;;;;;;;;;5048950;28;20363;-86
2020/12/11 08:04:13;;;;;;;74.30;41.35;;;;;;;;;;5031252;28;20876;-84
2020/12/11 08:06:39;;;;;;;70.30;41.30;;;;;;;;;;5049485;28;20576;-86
2020/12/11 08:09:14;;;;;;;72.18;42.03;;;;;;;;;;5031142;28;20438;-86
2020/12/11 08:11:44;;;;;;;65.28;39.10;;;;;;;;;;5032584;28;20368;-85
2020/12/11 08:14:10;;;;;;;70.50;41.30;;;;;;;;;;5034976;28;20364;-85
2020/12/11 08:16:36;;;;;;;72.35;41.00;;;;;;;;;;5045540;28;20457;-85
2020/12/11 08:19:03;;;;;;;73.45;41.17;;;;;;;;;;5038593;28;20378;-85
2020/12/11 08:21:30;;;;;;;73.68;43.97;;;;;;;;;;5048253;28;20902;-86
2020/12/11 08:23:56;;;;;;;73.93;41.28;;;;;;;;;;5044182;28;20459;-87
2020/12/11 08:26:22;;;;;;;73.63;42.37;;;;;;;;;;5049711;28;20768;-85
2020/12/11 08:28:49;;;;;;;78.60;43.55;;;;;;;;;;5070436;28;20350;-84
2020/12/11 08:31:16;;;;;;;70.38;40.63;;;;;;;;;;5039112;28;20370;-85
2020/12/11 08:33:42;;;;;;;73.57;42.17;;;;;;;;;;5074654;28;20682;-86
2020/12/11 08:36:18;;;;;;;74.65;42.72;;;;;;;;;;5073730;28;20886;-86
2020/12/11 08:38:44;;;;;;;71.82;40.75;;;;;;;;;;5055856;28;20460;-87
2020/12/11 08:41:17;;;;;;;73.17;41.90;;;;;;;;;;5073368;28;20965;-86
2020/12/11 08:43:46;;;;;;;71.27;42.63;;;;;;;;;;5073609;28;20466;-88
2020/12/11 08:46:33;;;;;;;72.47;43.38;;;;;;;;;;5073471;28;20363;-86
2020/12/11 08:49:16;;;;;;;75.95;43.17;;;;;;;;;;5039843;28;20442;-88
2020/12/11 08:51:42;;;;;;;72.13;42.83;;;;;;;;;;5054593;28;20426;-86
2020/12/11 08:54:10;;;;;;;76.60;43.42;;;;;;;;;;5059639;28;20367;-85
2020/12/11 08:56:36;;;;;;;75.93;43.97;;;;;;;;;;5056967;28;20363;-83
2020/12/11 08:59:02;;;;;;;75.78;42.97;;;;;;;;;;5074512;28;20382;-83
2020/12/11 09:01:28;;;;;;;73.72;44.10;;;;;;;;;;5057189;28;20520;-83
2020/12/11 09:03:54;;;;;;;78.25;44.67;;;;;;;;;;5056770;28;20398;-87
2020/12/11 09:06:20;;;;;;;71.50;42.10;;;;;;;;;;5056728;28;20519;-83
2020/12/11 09:08:46;;;;;;;74.57;43.05;;;;;;;;;;5062585;28;20367;-85
2020/12/11 09:11:12;;;;;;;74.33;42.40;;;;;;;;;;5070665;28;20848;-84
2020/12/11 09:13:38;;;;;;;75.80;42.83;;;;;;;;;;5056943;28;20402;-82
2020/12/11 09:16:04;;;;;;;70.15;42.25;;;;;;;;;;5053202;28;20371;-84
2020/12/11 09:18:30;;;;;;;75.03;43.78;;;;;;;;;;5065890;28;20427;-81
2020/12/11 09:20:56;;;;;;;70.22;42.33;;;;;;;;;;5073253;28;20453;-83
2020/12/11 09:23:22;;;;;;;70.32;41.58;;;;;;;;;;5067011;28;20378;-84
2020/12/11 09:25:49;;;;;;;68.22;39.92;;;;;;;;;;5064696;28;20371;-87
2020/12/11 09:28:18;;;;;;;64.13;39.08;;;;;;;;;;5068901;28;20412;-85
2020/12/11 09:30:45;;;;;;;62.78;37.95;;;;;;;;;;5073029;28;20389;-82
2020/12/11 09:35:43;;;;;;;63.63;38.00;;;;;;;;;;5064868;28;20420;-90
2020/12/11 09:38:09;;;;;;;64.05;38.03;;;;;;;;;;5036987;28;20380;-83
2020/12/11 09:40:47;;;;;;;59.88;36.53;;;;;;;;;;5033724;28;20781;-84
2020/12/11 09:43:41;;;;;;;69.53;44.83;;;;;;;;;;5063161;28;20898;-86
2020/12/11 09:56:08;;;;;;;63.47;38.72;;;;;;;;;;5054688;28;20847;-84
2020/12/11 09:58:38;;;;;;;56.88;36.75;;;;;;;;;;5054357;28;20848;-84
2020/12/11 10:01:06;;;;;;;63.03;36.53;;;;;;;;;;5054312;28;20374;-84
2020/12/11 10:03:35;;;;;;;62.67;38.70;;;;;;;;;;5054384;28;20453;-83
2020/12/11 10:06:01;;;;;;;60.75;37.83;;;;;;;;;;5072305;28;20350;-83
2020/12/11 10:08:27;;;;;;;59.22;38.30;;;;;;;;;;5054152;28;20374;-83
2020/12/11 10:10:53;;;;;;;64.57;38.95;;;;;;;;;;5053963;28;20499;-85
2020/12/11 10:13:20;;;;;;;63.28;39.70;;;;;;;;;;5072044;28;20399;-84
2020/12/11 10:15:46;;;;;;;60.70;38.23;;;;;;;;;;5072056;28;20825;-84
2020/12/11 10:18:12;;;;;;;65.57;40.25;;;;;;;;;;5055491;28;20374;-83
2020/12/11 10:20:41;;;;;;;60.63;38.92;;;;;;;;;;5054095;28;20369;-85
2020/12/11 10:23:07;;;;;;;60.50;38.30;;;;;;;;;;5054486;28;20453;-86
2020/12/11 10:25:33;;;;;;;61.70;38.30;;;;;;;;;;5072241;28;20429;-81
2020/12/11 10:27:59;;;;;;;56.78;36.75;;;;;;;;;;5072004;28;20704;-80
2020/12/11 10:30:25;;;;;;;56.20;37.13;;;;;;;;;;5053540;28;20451;-80
2020/12/11 10:32:54;;;;;;;54.17;36.65;;;;;;;;;;5053763;28;20439;-81
2020/12/11 10:35:20;;;;;;;55.67;36.80;;;;;;;;;;5052843;28;20363;-81
2020/12/11 10:37:46;;;;;;;53.08;35.58;;;;;;;;;;5071415;28;20361;-81
2020/12/11 10:40:12;;;;;;;54.70;36.43;;;;;;;;;;5053479;28;20424;-81
2020/12/11 10:42:38;;;;;;;57.08;36.65;;;;;;;;;;5071427;28;20351;-81
2020/12/11 10:45:04;;;;;;;54.47;35.88;;;;;;;;;;5053447;28;20840;-80
2020/12/11 10:47:30;;;;;;;57.85;35.50;;;;;;;;;;5062338;28;20857;-81
2020/12/11 10:49:56;;;;;;;56.85;36.72;;;;;;;;;;5050557;28;20401;-81
2020/12/11 10:52:22;;;;;;;56.75;36.92;;;;;;;;;;5052040;28;20701;-81
2020/12/11 10:54:49;;;;;;;59.85;37.90;;;;;;;;;;5035117;28;20364;-82
2020/12/11 10:57:15;;;;;;;61.00;38.55;;;;;;;;;;5032643;28;20411;-80
2020/12/11 10:59:41;;;;;;;57.40;36.40;;;;;;;;;;5032267;28;20928;-80
2020/12/11 11:02:07;;;;;;;59.42;37.30;;;;;;;;;;5032518;28;20471;-81
2020/12/11 11:04:34;;;;;;;56.92;37.72;;;;;;;;;;5050839;28;20708;-81
2020/12/11 11:07:10;;;;;;;53.53;36.25;;;;;;;;;;5050765;28;20497;-81
2020/12/11 11:12:18;;;;;;;55.38;36.95;;;;;;;;;;5050993;28;20491;-81
2020/12/11 11:20:02;;;;;;;76.60;50.78;;;;;;;;;;5050336;28;20383;-81
2020/12/11 11:25:42;;;;;;;58.45;37.85;;;;;;;;;;5050672;28;20516;-82
2020/12/11 11:28:02;;;;;;;55.78;36.92;;;;;;;;;;5049992;28;20929;-81
2020/12/11 11:30:29;;;;;;;60.03;38.47;;;;;;;;;;5049977;28;20483;-81
2020/12/11 11:32:56;;;;;;;59.00;37.65;;;;;;;;;;5050684;28;20364;-81
2020/12/11 11:35:22;;;;;;;53.65;36.35;;;;;;;;;;5050469;28;20450;-81
2020/12/11 11:37:49;;;;;;;57.30;38.20;;;;;;;;;;5050408;28;20348;-81
2020/12/11 11:40:15;;;;;;;58.33;37.75;;;;;;;;;;5049940;28;20359;-81
2020/12/11 11:42:41;;;;;;;58.42;38.35;;;;;;;;;;5050116;28;20355;-81
2020/12/11 11:45:09;;;;;;;58.67;38.03;;;;;;;;;;5032419;28;20386;-82
2020/12/11 11:47:38;;;;;;;57.63;37.70;;;;;;;;;;5032265;28;20478;-83
2020/12/11 11:55:25;;;;;;;59.35;38.65;;;;;;;;;;5045434;28;20867;-81
2020/12/11 11:57:51;;;;;;;61.97;40.85;;;;;;;;;;5050862;28;20424;-81
2020/12/11 12:00:17;;;;;;;61.75;40.03;;;;;;;;;;5047388;28;20718;-82
2020/12/11 12:02:43;;;;;;;61.93;40.13;;;;;;;;;;5069293;28;20359;-81
2020/12/11 12:05:10;;;;;;;66.53;41.85;;;;;;;;;;5069486;28;20361;-82
2020/12/11 12:07:37;;;;;;;60.90;40.33;;;;;;;;;;5051246;28;20370;-81
2020/12/11 12:10:04;;;;;;;62.45;41.22;;;;;;;;;;5069228;28;20382;-81
2020/12/11 12:12:34;;;;;;;63.08;41.45;;;;;;;;;;5069594;28;20737;-82
2020/12/11 12:15:00;;;;;;;61.08;40.08;;;;;;;;;;5032275;28;20397;-83
2020/12/11 12:17:33;;;;;;;60.05;39.42;;;;;;;;;;5057062;28;20806;-82
2020/12/11 12:20:04;;;;;;;66.72;42.13;;;;;;;;;;5050823;28;20702;-81
2020/12/11 12:28:16;;;;;;;61.33;40.80;;;;;;;;;;5049701;28;20853;-81
2020/12/11 12:30:35;;;;;;;63.40;42.50;;;;;;;;;;5048025;28;20403;-82
2020/12/11 12:43:42;;;;;;;60.80;39.70;;;;;;;;;;5049219;28;20761;-80
2020/12/11 12:46:08;;;;;;;56.50;39.30;;;;;;;;;;5031284;28;20375;-80
2020/12/11 12:48:34;;;;;;;60.22;40.63;;;;;;;;;;5049145;28;20364;-81
2020/12/11 12:51:00;;;;;;;58.83;38.50;;;;;;;;;;5030688;28;20388;-80
2020/12/11 12:53:28;;;;;;;58.35;38.67;;;;;;;;;;5048997;28;20454;-81
2020/12/11 12:58:42;;;;;;;60.63;40.08;;;;;;;;;;5051628;28;20465;-80
2020/12/11 13:01:24;;;;;;;59.13;39.53;;;;;;;;;;5052060;28;20363;-80
2020/12/11 13:06:16;;;;;;;52.67;37.28;;;;;;;;;;5052693;28;20941;-81
2020/12/11 13:08:42;;;;;;;55.53;37.17;;;;;;;;;;5052621;28;20865;-81
2020/12/11 13:11:08;;;;;;;57.83;39.43;;;;;;;;;;5051327;28;20476;-82
2020/12/11 13:13:34;;;;;;;61.28;41.40;;;;;;;;;;5049056;28;20864;-81
2020/12/11 13:16:00;;;;;;;59.95;39.10;;;;;;;;;;5071612;28;20351;-78
2020/12/11 13:18:26;;;;;;;59.03;38.35;;;;;;;;;;5054461;28;20784;-81
2020/12/11 13:20:53;;;;;;;58.42;39.22;;;;;;;;;;5072330;28;20420;-81
2020/12/11 13:28:35;;;;;;;63.23;39.23;;;;;;;;;;5072517;28;20381;-80
2020/12/11 13:31:01;;;;;;;61.83;39.40;;;;;;;;;;5065347;28;20893;-83
2020/12/11 13:33:27;;;;;;;58.30;37.45;;;;;;;;;;5069995;28;20407;-83
2020/12/11 13:35:53;;;;;;;59.92;39.47;;;;;;;;;;5051785;28;20394;-82
2020/12/11 13:38:19;;;;;;;60.97;39.60;;;;;;;;;;5048822;28;20382;-81
2020/12/11 13:40:45;;;;;;;60.58;39.95;;;;;;;;;;5053005;28;20366;-81
2020/12/11 13:43:11;;;;;;;64.00;41.63;;;;;;;;;;5071254;28;20445;-81
2020/12/11 13:45:37;;;;;;;65.30;40.75;;;;;;;;;;5036824;28;20384;-82
2020/12/11 13:48:03;;;;;;;67.75;42.65;;;;;;;;;;5034133;28;20380;-82
2020/12/11 13:50:30;;;;;;;62.70;41.22;;;;;;;;;;5063564;28;20413;-81
2020/12/11 13:52:55;;;;;;;64.22;40.28;;;;;;;;;;5053162;28;20472;-82
2020/12/11 13:55:21;;;;;;;64.38;40.55;;;;;;;;;;5053257;28;20945;-82
2020/12/11 13:57:47;;;;;;;63.42;40.95;;;;;;;;;;5071231;28;20714;-81
2020/12/11 14:00:13;;;;;;;66.10;41.80;;;;;;;;;;5053122;28;20383;-81
2020/12/11 14:02:40;;;;;;;65.87;41.47;;;;;;;;;;5054311;28;20407;-81
2020/12/11 14:05:06;;;;;;;67.82;43.45;;;;;;;;;;5033434;28;20454;-81
2020/12/11 14:07:32;;;;;;;71.30;44.83;;;;;;;;;;5033879;28;20467;-81
2020/12/11 14:09:58;;;;;;;69.80;43.40;;;;;;;;;;5032392;28;20403;-82
2020/12/11 14:12:24;;;;;;;71.82;45.45;;;;;;;;;;5033232;28;20402;-81
2020/12/11 14:14:50;;;;;;;72.70;44.47;;;;;;;;;;5033002;28;20364;-81
2020/12/11 14:17:21;;;;;;;72.17;44.03;;;;;;;;;;5034103;28;20723;-82
2020/12/11 14:24:45;;;;;;;72.30;43.80;;;;;;;;;;5051629;28;20368;-81
2020/12/11 14:27:11;;;;;;;74.63;45.58;;;;;;;;;;5051323;28;20367;-82
2020/12/11 14:29:37;;;;;;;76.13;45.80;;;;;;;;;;5051347;28;20402;-81
2020/12/11 14:32:07;;;;;;;71.17;43.93;;;;;;;;;;5033799;28;20730;-82
2020/12/11 14:34:33;;;;;;;73.37;44.67;;;;;;;;;;5051536;28;20363;-81
2020/12/11 14:36:59;;;;;;;74.50;44.75;;;;;;;;;;5033362;28;20877;-81
2020/12/11 14:39:25;;;;;;;70.95;43.75;;;;;;;;;;5033262;28;20376;-82
2020/12/11 14:41:51;;;;;;;74.75;45.40;;;;;;;;;;5051278;28;20401;-81
2020/12/11 14:44:17;;;;;;;71.17;44.53;;;;;;;;;;5033533;28;20383;-82
2020/12/11 14:46:43;;;;;;;71.35;45.35;;;;;;;;;;5033542;28;20368;-82
2020/12/11 14:49:09;;;;;;;77.15;45.63;;;;;;;;;;5033136;28;20442;-79
2020/12/11 14:51:41;;;;;;;74.25;45.47;;;;;;;;;;5034034;28;20870;-84
2020/12/11 14:54:07;;;;;;;76.40;46.15;;;;;;;;;;5034606;28;20549;-86
2020/12/11 14:56:44;;;;;;;77.05;46.50;;;;;;;;;;5036972;28;20384;-87
2020/12/11 14:59:10;;;;;;;78.28;47.22;;;;;;;;;;5043037;28;20386;-82
2020/12/11 15:01:37;;;;;;;80.38;46.28;;;;;;;;;;5041133;28;20452;-83
2020/12/11 15:04:05;;;;;;;77.57;46.30;;;;;;;;;;5040854;28;20376;-82
2020/12/11 15:06:31;;;;;;;77.47;46.70;;;;;;;;;;5056880;28;20457;-82
2020/12/11 15:08:58;;;;;;;79.32;47.10;;;;;;;;;;5040854;28;20401;-86
2020/12/11 15:11:24;;;;;;;76.75;44.67;;;;;;;;;;5045550;28;20384;-84
2020/12/11 15:13:50;;;;;;;76.63;46.13;;;;;;;;;;5069452;28;20360;-82
2020/12/11 15:16:17;;;;;;;78.50;46.72;;;;;;;;;;5054929;28;20724;-81
2020/12/11 15:18:45;;;;;;;81.55;46.72;;;;;;;;;;5057079;28;20862;-84